sensor_id;sensor_type;location;lat;lon;timestamp;P1;durP1;ratioP1;P2;durP2;ratioP2
974;SDS011;6115;49.296;10.602;2022-10-22T00:03:59;7.47;;;4.10;;
974;SDS011;6115;49.296;10.602;2022-10-22T00:09:00;4.87;;;3.80;;
974;SDS011;6115;49.296;10.602;2022-10-22T00:14:01;4.70;;;4.33;;
974;SDS011;6115;49.296;10.602;2022-10-22T00:19:01;5.07;;;4.00;;
974;SDS011;6115;49.296;10.602;2022-10-22T00:24:02;4.30;;;3.90;;
974;SDS011;6115;49.296;10.602;2022-10-22T00:29:03;5.90;;;4.30;;
974;SDS011;6115;49.296;10.602;2022-10-22T00:34:04;7.50;;;4.60;;
974;SDS011;6115;49.296;10.602;2022-10-22T00:39:04;8.30;;;4.57;;
974;SDS011;6115;49.296;10.602;2022-10-22T00:44:05;5.67;;;4.20;;
974;SDS011;6115;49.296;10.602;2022-10-22T00:49:05;3.80;;;3.40;;
974;SDS011;6115;49.296;10.602;2022-10-22T00:54:06;3.60;;;2.90;;
974;SDS011;6115;49.296;10.602;2022-10-22T00:59:08;5.43;;;2.50;;
974;SDS011;6115;49.296;10.602;2022-10-22T01:04:09;4.07;;;2.43;;
974;SDS011;6115;49.296;10.602;2022-10-22T01:19:55;3.60;;;1.60;;
974;SDS011;6115;49.296;10.602;2022-10-22T01:30:36;1.60;;;1.30;;
974;SDS011;6115;49.296;10.602;2022-10-22T01:35:39;1.60;;;1.30;;
974;SDS011;6115;49.296;10.602;2022-10-22T01:40:42;1.30;;;1.17;;
974;SDS011;6115;49.296;10.602;2022-10-22T01:45:48;1.93;;;1.60;;
974;SDS011;6115;49.296;10.602;2022-10-22T01:51:10;3.27;;;1.60;;
974;SDS011;6115;49.296;10.602;2022-10-22T01:56:26;6.00;;;2.20;;
974;SDS011;6115;49.296;10.602;2022-10-22T02:01:48;1.93;;;1.47;;
974;SDS011;6115;49.296;10.602;2022-10-22T02:07:12;1.90;;;1.37;;
974;SDS011;6115;49.296;10.602;2022-10-22T02:12:17;5.30;;;2.40;;
974;SDS011;6115;49.296;10.602;2022-10-22T02:17:20;4.60;;;1.37;;
974;SDS011;6115;49.296;10.602;2022-10-22T02:22:23;3.57;;;1.60;;
974;SDS011;6115;49.296;10.602;2022-10-22T02:27:29;2.50;;;1.33;;
974;SDS011;6115;49.296;10.602;2022-10-22T02:32:59;1.30;;;1.20;;
974;SDS011;6115;49.296;10.602;2022-10-22T02:38:06;1.23;;;1.13;;
974;SDS011;6115;49.296;10.602;2022-10-22T02:43:08;3.43;;;1.40;;
974;SDS011;6115;49.296;10.602;2022-10-22T02:48:09;2.87;;;1.27;;
974;SDS011;6115;49.296;10.602;2022-10-22T02:53:09;2.13;;;1.13;;
974;SDS011;6115;49.296;10.602;2022-10-22T02:58:10;1.20;;;1.00;;
974;SDS011;6115;49.296;10.602;2022-10-22T03:03:12;1.60;;;1.23;;
974;SDS011;6115;49.296;10.602;2022-10-22T03:08:13;2.20;;;1.63;;
974;SDS011;6115;49.296;10.602;2022-10-22T03:13:13;7.30;;;2.83;;
974;SDS011;6115;49.296;10.602;2022-10-22T03:18:14;3.43;;;1.50;;
974;SDS011;6115;49.296;10.602;2022-10-22T03:23:16;8.10;;;1.60;;
974;SDS011;6115;49.296;10.602;2022-10-22T03:28:18;2.30;;;1.23;;
974;SDS011;6115;49.296;10.602;2022-10-22T03:33:19;1.80;;;1.20;;
974;SDS011;6115;49.296;10.602;2022-10-22T03:38:20;2.30;;;1.33;;
974;SDS011;6115;49.296;10.602;2022-10-22T03:43:20;1.73;;;1.30;;
974;SDS011;6115;49.296;10.602;2022-10-22T03:48:21;5.60;;;1.20;;
974;SDS011;6115;49.296;10.602;2022-10-22T03:53:22;2.63;;;1.30;;
974;SDS011;6115;49.296;10.602;2022-10-22T03:58:22;2.50;;;1.60;;
974;SDS011;6115;49.296;10.602;2022-10-22T04:03:23;4.70;;;4.30;;
974;SDS011;6115;49.296;10.602;2022-10-22T04:08:23;5.13;;;3.10;;
974;SDS011;6115;49.296;10.602;2022-10-22T04:13:24;2.80;;;2.30;;
974;SDS011;6115;49.296;10.602;2022-10-22T04:18:24;4.50;;;3.10;;
974;SDS011;6115;49.296;10.602;2022-10-22T04:23:25;2.93;;;1.90;;
974;SDS011;6115;49.296;10.602;2022-10-22T04:28:25;5.23;;;1.70;;
974;SDS011;6115;49.296;10.602;2022-10-22T04:33:26;2.63;;;2.27;;
974;SDS011;6115;49.296;10.602;2022-10-22T04:38:27;2.23;;;1.50;;
974;SDS011;6115;49.296;10.602;2022-10-22T04:43:28;3.37;;;2.90;;
974;SDS011;6115;49.296;10.602;2022-10-22T04:48:28;1.63;;;1.53;;
974;SDS011;6115;49.296;10.602;2022-10-22T04:53:29;1.70;;;1.30;;
974;SDS011;6115;49.296;10.602;2022-10-22T04:58:29;2.70;;;1.70;;
974;SDS011;6115;49.296;10.602;2022-10-22T05:03:30;9.30;;;2.13;;
974;SDS011;6115;49.296;10.602;2022-10-22T05:08:30;5.43;;;1.70;;
974;SDS011;6115;49.296;10.602;2022-10-22T05:13:31;2.03;;;1.80;;
974;SDS011;6115;49.296;10.602;2022-10-22T05:18:33;2.87;;;1.67;;
974;SDS011;6115;49.296;10.602;2022-10-22T05:23:37;3.17;;;2.10;;
974;SDS011;6115;49.296;10.602;2022-10-22T05:28:38;1.77;;;1.63;;
974;SDS011;6115;49.296;10.602;2022-10-22T05:33:39;3.40;;;2.33;;
974;SDS011;6115;49.296;10.602;2022-10-22T05:38:40;3.33;;;2.30;;
974;SDS011;6115;49.296;10.602;2022-10-22T05:43:41;3.20;;;2.30;;
974;SDS011;6115;49.296;10.602;2022-10-22T05:48:41;3.50;;;2.53;;
974;SDS011;6115;49.296;10.602;2022-10-22T05:53:43;4.90;;;2.43;;
974;SDS011;6115;49.296;10.602;2022-10-22T05:58:44;3.67;;;2.10;;
974;SDS011;6115;49.296;10.602;2022-10-22T06:03:45;5.40;;;4.70;;
974;SDS011;6115;49.296;10.602;2022-10-22T06:08:47;7.97;;;5.00;;
974;SDS011;6115;49.296;10.602;2022-10-22T06:13:49;3.77;;;3.47;;
974;SDS011;6115;49.296;10.602;2022-10-22T06:18:50;3.97;;;3.07;;
974;SDS011;6115;49.296;10.602;2022-10-22T06:23:51;5.40;;;2.80;;
974;SDS011;6115;49.296;10.602;2022-10-22T06:28:51;2.90;;;2.70;;
974;SDS011;6115;49.296;10.602;2022-10-22T06:33:53;2.97;;;2.50;;
974;SDS011;6115;49.296;10.602;2022-10-22T06:38:55;4.23;;;3.20;;
974;SDS011;6115;49.296;10.602;2022-10-22T06:43:56;3.87;;;3.57;;
974;SDS011;6115;49.296;10.602;2022-10-22T06:48:57;4.70;;;3.57;;
974;SDS011;6115;49.296;10.602;2022-10-22T06:53:59;4.20;;;3.50;;
974;SDS011;6115;49.296;10.602;2022-10-22T06:59:00;4.87;;;4.37;;
974;SDS011;6115;49.296;10.602;2022-10-22T07:04:01;5.90;;;5.47;;
974;SDS011;6115;49.296;10.602;2022-10-22T07:09:02;7.33;;;6.73;;
974;SDS011;6115;49.296;10.602;2022-10-22T07:14:03;6.57;;;5.97;;
974;SDS011;6115;49.296;10.602;2022-10-22T07:19:04;5.30;;;4.90;;
974;SDS011;6115;49.296;10.602;2022-10-22T07:24:04;4.93;;;4.63;;
974;SDS011;6115;49.296;10.602;2022-10-22T07:29:05;4.17;;;3.10;;
974;SDS011;6115;49.296;10.602;2022-10-22T07:34:06;2.73;;;2.43;;
974;SDS011;6115;49.296;10.602;2022-10-22T07:39:07;3.47;;;2.07;;
974;SDS011;6115;49.296;10.602;2022-10-22T07:44:08;2.63;;;2.03;;
974;SDS011;6115;49.296;10.602;2022-10-22T07:49:08;2.00;;;1.90;;
974;SDS011;6115;49.296;10.602;2022-10-22T07:54:09;3.40;;;1.20;;
974;SDS011;6115;49.296;10.602;2022-10-22T07:59:09;2.03;;;0.90;;
974;SDS011;6115;49.296;10.602;2022-10-22T08:04:10;1.20;;;1.10;;
974;SDS011;6115;49.296;10.602;2022-10-22T08:09:11;2.10;;;1.90;;
974;SDS011;6115;49.296;10.602;2022-10-22T08:14:11;2.13;;;1.80;;
974;SDS011;6115;49.296;10.602;2022-10-22T08:19:12;3.60;;;2.10;;
974;SDS011;6115;49.296;10.602;2022-10-22T08:24:13;4.43;;;1.40;;
974;SDS011;6115;49.296;10.602;2022-10-22T08:29:13;2.17;;;1.20;;
974;SDS011;6115;49.296;10.602;2022-10-22T08:34:14;1.20;;;1.10;;
974;SDS011;6115;49.296;10.602;2022-10-22T08:39:15;2.67;;;2.47;;
974;SDS011;6115;49.296;10.602;2022-10-22T08:49:40;1.90;;;1.10;;
974;SDS011;6115;49.296;10.602;2022-10-22T09:00:08;0.83;;;0.67;;
974;SDS011;6115;49.296;10.602;2022-10-22T09:05:15;1.37;;;0.90;;
974;SDS011;6115;49.296;10.602;2022-10-22T09:10:34;1.83;;;0.87;;
974;SDS011;6115;49.296;10.602;2022-10-22T09:15:37;0.90;;;0.80;;
974;SDS011;6115;49.296;10.602;2022-10-22T09:20:42;1.43;;;0.83;;
974;SDS011;6115;49.296;10.602;2022-10-22T09:25:48;0.90;;;0.70;;
974;SDS011;6115;49.296;10.602;2022-10-22T09:30:50;1.30;;;0.80;;
974;SDS011;6115;49.296;10.602;2022-10-22T09:35:52;1.00;;;0.73;;
974;SDS011;6115;49.296;10.602;2022-10-22T09:40:56;2.63;;;0.90;;
974;SDS011;6115;49.296;10.602;2022-10-22T09:46:02;1.00;;;0.90;;
974;SDS011;6115;49.296;10.602;2022-10-22T09:51:05;4.33;;;0.67;;
974;SDS011;6115;49.296;10.602;2022-10-22T09:56:22;1.40;;;0.70;;
974;SDS011;6115;49.296;10.602;2022-10-22T10:01:27;1.97;;;0.80;;
974;SDS011;6115;49.296;10.602;2022-10-22T10:06:31;2.03;;;0.80;;
974;SDS011;6115;49.296;10.602;2022-10-22T10:11:38;1.57;;;0.80;;
974;SDS011;6115;49.296;10.602;2022-10-22T10:16:53;2.43;;;0.90;;
974;SDS011;6115;49.296;10.602;2022-10-22T10:22:29;1.63;;;0.70;;
974;SDS011;6115;49.296;10.602;2022-10-22T10:27:51;1.47;;;0.80;;
974;SDS011;6115;49.296;10.602;2022-10-22T10:33:21;0.90;;;0.60;;
974;SDS011;6115;49.296;10.602;2022-10-22T10:49:02;3.27;;;0.80;;
974;SDS011;6115;49.296;10.602;2022-10-22T11:00:05;1.13;;;0.60;;
974;SDS011;6115;49.296;10.602;2022-10-22T11:05:13;1.10;;;0.60;;
974;SDS011;6115;49.296;10.602;2022-10-22T11:15:56;2.00;;;0.70;;
974;SDS011;6115;49.296;10.602;2022-10-22T11:26:44;0.90;;;0.60;;
974;SDS011;6115;49.296;10.602;2022-10-22T11:31:45;1.63;;;0.50;;
974;SDS011;6115;49.296;10.602;2022-10-22T11:36:47;4.67;;;0.73;;
974;SDS011;6115;49.296;10.602;2022-10-22T11:41:49;1.77;;;0.70;;
974;SDS011;6115;49.296;10.602;2022-10-22T11:52:04;1.40;;;0.70;;
974;SDS011;6115;49.296;10.602;2022-10-22T11:57:26;2.30;;;0.80;;
974;SDS011;6115;49.296;10.602;2022-10-22T12:07:52;2.40;;;0.80;;
974;SDS011;6115;49.296;10.602;2022-10-22T12:13:04;3.60;;;1.00;;
974;SDS011;6115;49.296;10.602;2022-10-22T12:18:12;1.87;;;0.70;;
974;SDS011;6115;49.296;10.602;2022-10-22T12:23:14;1.17;;;0.70;;
974;SDS011;6115;49.296;10.602;2022-10-22T12:28:15;2.97;;;1.03;;
974;SDS011;6115;49.296;10.602;2022-10-22T12:33:19;1.20;;;0.60;;
974;SDS011;6115;49.296;10.602;2022-10-22T12:38:22;1.53;;;0.80;;
974;SDS011;6115;49.296;10.602;2022-10-22T12:43:25;2.60;;;0.80;;
974;SDS011;6115;49.296;10.602;2022-10-22T12:48:30;3.13;;;0.80;;
974;SDS011;6115;49.296;10.602;2022-10-22T12:53:35;1.40;;;0.70;;
974;SDS011;6115;49.296;10.602;2022-10-22T12:58:47;2.17;;;0.73;;
974;SDS011;6115;49.296;10.602;2022-10-22T13:24:47;1.20;;;0.70;;
974;SDS011;6115;49.296;10.602;2022-10-22T13:29:48;3.20;;;1.00;;
974;SDS011;6115;49.296;10.602;2022-10-22T13:34:49;1.23;;;0.87;;
974;SDS011;6115;49.296;10.602;2022-10-22T13:39:50;2.57;;;0.70;;
974;SDS011;6115;49.296;10.602;2022-10-22T13:44:50;1.13;;;0.70;;
974;SDS011;6115;49.296;10.602;2022-10-22T13:49:51;2.40;;;0.90;;
974;SDS011;6115;49.296;10.602;2022-10-22T13:54:54;1.50;;;0.70;;
974;SDS011;6115;49.296;10.602;2022-10-22T13:59:55;1.73;;;0.80;;
974;SDS011;6115;49.296;10.602;2022-10-22T14:04:55;0.80;;;0.80;;
974;SDS011;6115;49.296;10.602;2022-10-22T14:10:04;2.13;;;1.00;;
974;SDS011;6115;49.296;10.602;2022-10-22T14:15:13;8.90;;;1.63;;
974;SDS011;6115;49.296;10.602;2022-10-22T14:20:16;3.13;;;1.03;;
974;SDS011;6115;49.296;10.602;2022-10-22T14:25:21;2.97;;;1.00;;
974;SDS011;6115;49.296;10.602;2022-10-22T14:30:24;1.87;;;1.10;;
974;SDS011;6115;49.296;10.602;2022-10-22T14:35:25;4.80;;;3.37;;
974;SDS011;6115;49.296;10.602;2022-10-22T14:40:25;3.10;;;1.50;;
974;SDS011;6115;49.296;10.602;2022-10-22T14:45:26;2.10;;;1.27;;
974;SDS011;6115;49.296;10.602;2022-10-22T14:50:26;2.83;;;1.40;;
974;SDS011;6115;49.296;10.602;2022-10-22T14:55:27;6.10;;;1.60;;
974;SDS011;6115;49.296;10.602;2022-10-22T15:00:28;2.30;;;1.50;;
974;SDS011;6115;49.296;10.602;2022-10-22T15:05:28;2.07;;;1.50;;
974;SDS011;6115;49.296;10.602;2022-10-22T15:10:29;5.43;;;1.30;;
974;SDS011;6115;49.296;10.602;2022-10-22T15:15:29;1.67;;;1.13;;
974;SDS011;6115;49.296;10.602;2022-10-22T15:20:31;3.83;;;1.63;;
974;SDS011;6115;49.296;10.602;2022-10-22T15:25:31;2.03;;;1.77;;
974;SDS011;6115;49.296;10.602;2022-10-22T15:30:32;1.40;;;1.20;;
974;SDS011;6115;49.296;10.602;2022-10-22T15:35:32;4.10;;;1.77;;
974;SDS011;6115;49.296;10.602;2022-10-22T15:40:33;4.90;;;2.43;;
974;SDS011;6115;49.296;10.602;2022-10-22T15:45:34;4.60;;;1.77;;
974;SDS011;6115;49.296;10.602;2022-10-22T15:50:37;5.90;;;1.37;;
974;SDS011;6115;49.296;10.602;2022-10-22T15:55:38;9.10;;;1.40;;
974;SDS011;6115;49.296;10.602;2022-10-22T16:00:38;4.10;;;0.90;;
974;SDS011;6115;49.296;10.602;2022-10-22T16:05:39;5.60;;;1.30;;
974;SDS011;6115;49.296;10.602;2022-10-22T16:10:43;4.73;;;1.80;;
974;SDS011;6115;49.296;10.602;2022-10-22T16:15:45;3.33;;;1.23;;
974;SDS011;6115;49.296;10.602;2022-10-22T16:20:46;5.23;;;1.47;;
974;SDS011;6115;49.296;10.602;2022-10-22T16:25:46;7.30;;;1.70;;
974;SDS011;6115;49.296;10.602;2022-10-22T16:30:47;4.80;;;1.67;;
974;SDS011;6115;49.296;10.602;2022-10-22T16:35:47;5.83;;;1.90;;
974;SDS011;6115;49.296;10.602;2022-10-22T16:40:48;4.60;;;2.83;;
974;SDS011;6115;49.296;10.602;2022-10-22T16:45:49;5.30;;;3.60;;
974;SDS011;6115;49.296;10.602;2022-10-22T16:50:50;10.17;;;9.07;;
974;SDS011;6115;49.296;10.602;2022-10-22T16:55:51;5.03;;;4.43;;
974;SDS011;6115;49.296;10.602;2022-10-22T17:00:51;6.63;;;3.00;;
974;SDS011;6115;49.296;10.602;2022-10-22T17:05:52;6.07;;;2.80;;
974;SDS011;6115;49.296;10.602;2022-10-22T17:10:52;7.27;;;3.23;;
974;SDS011;6115;49.296;10.602;2022-10-22T17:15:59;13.63;;;3.20;;
974;SDS011;6115;49.296;10.602;2022-10-22T17:21:03;10.60;;;3.37;;
974;SDS011;6115;49.296;10.602;2022-10-22T17:26:05;7.53;;;3.40;;
974;SDS011;6115;49.296;10.602;2022-10-22T17:31:10;3.40;;;3.03;;
974;SDS011;6115;49.296;10.602;2022-10-22T17:36:40;6.63;;;2.50;;
974;SDS011;6115;49.296;10.602;2022-10-22T17:41:42;9.33;;;3.40;;
974;SDS011;6115;49.296;10.602;2022-10-22T17:46:42;14.07;;;4.07;;
974;SDS011;6115;49.296;10.602;2022-10-22T17:51:44;8.60;;;3.50;;
974;SDS011;6115;49.296;10.602;2022-10-22T17:56:45;5.70;;;2.70;;
974;SDS011;6115;49.296;10.602;2022-10-22T18:01:45;4.67;;;3.40;;
974;SDS011;6115;49.296;10.602;2022-10-22T18:06:46;9.33;;;4.27;;
974;SDS011;6115;49.296;10.602;2022-10-22T18:11:48;6.97;;;4.43;;
974;SDS011;6115;49.296;10.602;2022-10-22T18:16:50;9.90;;;4.77;;
974;SDS011;6115;49.296;10.602;2022-10-22T18:21:51;10.97;;;5.90;;
974;SDS011;6115;49.296;10.602;2022-10-22T18:26:51;15.20;;;13.73;;
974;SDS011;6115;49.296;10.602;2022-10-22T18:31:52;5.43;;;4.93;;
974;SDS011;6115;49.296;10.602;2022-10-22T18:36:52;10.83;;;6.30;;
974;SDS011;6115;49.296;10.602;2022-10-22T18:41:53;11.80;;;7.97;;
974;SDS011;6115;49.296;10.602;2022-10-22T18:46:53;6.17;;;5.43;;
974;SDS011;6115;49.296;10.602;2022-10-22T18:51:54;9.57;;;7.80;;
974;SDS011;6115;49.296;10.602;2022-10-22T18:56:54;8.60;;;7.50;;
974;SDS011;6115;49.296;10.602;2022-10-22T19:01:58;6.70;;;5.50;;
974;SDS011;6115;49.296;10.602;2022-10-22T19:06:59;7.30;;;5.10;;
974;SDS011;6115;49.296;10.602;2022-10-22T19:12:00;6.90;;;4.07;;
974;SDS011;6115;49.296;10.602;2022-10-22T19:17:01;5.20;;;3.90;;
974;SDS011;6115;49.296;10.602;2022-10-22T19:22:01;4.90;;;3.47;;
974;SDS011;6115;49.296;10.602;2022-10-22T19:27:02;7.27;;;3.97;;
974;SDS011;6115;49.296;10.602;2022-10-22T19:32:03;11.47;;;6.10;;
974;SDS011;6115;49.296;10.602;2022-10-22T19:37:04;12.97;;;7.40;;
974;SDS011;6115;49.296;10.602;2022-10-22T19:42:04;9.53;;;7.50;;
974;SDS011;6115;49.296;10.602;2022-10-22T19:47:05;9.93;;;6.73;;
974;SDS011;6115;49.296;10.602;2022-10-22T19:52:06;12.30;;;5.70;;
974;SDS011;6115;49.296;10.602;2022-10-22T19:57:06;8.37;;;5.13;;
974;SDS011;6115;49.296;10.602;2022-10-22T20:02:10;7.07;;;4.60;;
974;SDS011;6115;49.296;10.602;2022-10-22T20:07:15;9.43;;;4.47;;
974;SDS011;6115;49.296;10.602;2022-10-22T20:12:15;5.37;;;4.43;;
974;SDS011;6115;49.296;10.602;2022-10-22T20:17:16;4.80;;;4.40;;
974;SDS011;6115;49.296;10.602;2022-10-22T20:22:16;6.67;;;4.73;;
974;SDS011;6115;49.296;10.602;2022-10-22T20:27:17;8.90;;;5.90;;
974;SDS011;6115;49.296;10.602;2022-10-22T20:32:17;8.00;;;5.23;;
974;SDS011;6115;49.296;10.602;2022-10-22T20:37:18;11.60;;;5.67;;
974;SDS011;6115;49.296;10.602;2022-10-22T20:42:18;8.80;;;5.27;;
974;SDS011;6115;49.296;10.602;2022-10-22T20:47:19;7.13;;;5.20;;
974;SDS011;6115;49.296;10.602;2022-10-22T20:52:19;9.20;;;5.87;;
974;SDS011;6115;49.296;10.602;2022-10-22T20:57:20;10.30;;;5.73;;
974;SDS011;6115;49.296;10.602;2022-10-22T21:02:21;6.17;;;5.57;;
974;SDS011;6115;49.296;10.602;2022-10-22T21:07:21;7.90;;;5.40;;
974;SDS011;6115;49.296;10.602;2022-10-22T21:12:22;7.53;;;5.40;;
974;SDS011;6115;49.296;10.602;2022-10-22T21:17:23;7.93;;;6.83;;
974;SDS011;6115;49.296;10.602;2022-10-22T21:22:23;6.77;;;6.07;;
974;SDS011;6115;49.296;10.602;2022-10-22T21:27:24;8.93;;;5.93;;
974;SDS011;6115;49.296;10.602;2022-10-22T21:32:24;8.40;;;4.50;;
974;SDS011;6115;49.296;10.602;2022-10-22T21:37:27;5.73;;;5.13;;
974;SDS011;6115;49.296;10.602;2022-10-22T21:42:29;5.80;;;5.03;;
974;SDS011;6115;49.296;10.602;2022-10-22T21:47:29;9.53;;;5.63;;
974;SDS011;6115;49.296;10.602;2022-10-22T21:52:30;11.23;;;4.80;;
974;SDS011;6115;49.296;10.602;2022-10-22T21:57:30;6.67;;;5.40;;
974;SDS011;6115;49.296;10.602;2022-10-22T22:02:31;7.27;;;5.70;;
974;SDS011;6115;49.296;10.602;2022-10-22T22:07:31;6.30;;;5.03;;
974;SDS011;6115;49.296;10.602;2022-10-22T22:12:32;9.00;;;5.40;;
974;SDS011;6115;49.296;10.602;2022-10-22T22:17:32;8.80;;;5.80;;
974;SDS011;6115;49.296;10.602;2022-10-22T22:22:33;8.17;;;5.40;;
974;SDS011;6115;49.296;10.602;2022-10-22T22:27:33;7.80;;;5.40;;
974;SDS011;6115;49.296;10.602;2022-10-22T22:32:34;7.90;;;5.40;;
974;SDS011;6115;49.296;10.602;2022-10-22T22:37:35;14.83;;;6.00;;
974;SDS011;6115;49.296;10.602;2022-10-22T22:42:35;9.50;;;5.77;;
974;SDS011;6115;49.296;10.602;2022-10-22T22:47:36;8.17;;;5.97;;
974;SDS011;6115;49.296;10.602;2022-10-22T22:52:36;8.90;;;6.23;;
974;SDS011;6115;49.296;10.602;2022-10-22T22:57:37;14.37;;;5.90;;
974;SDS011;6115;49.296;10.602;2022-10-22T23:02:37;10.20;;;5.80;;
974;SDS011;6115;49.296;10.602;2022-10-22T23:07:38;9.43;;;5.87;;
974;SDS011;6115;49.296;10.602;2022-10-22T23:12:38;6.40;;;5.43;;
974;SDS011;6115;49.296;10.602;2022-10-22T23:17:39;6.00;;;5.00;;
974;SDS011;6115;49.296;10.602;2022-10-22T23:22:39;10.03;;;5.13;;
974;SDS011;6115;49.296;10.602;2022-10-22T23:27:40;7.03;;;4.90;;
974;SDS011;6115;49.296;10.602;2022-10-22T23:32:40;7.90;;;5.67;;
974;SDS011;6115;49.296;10.602;2022-10-22T23:37:41;17.97;;;6.03;;
974;SDS011;6115;49.296;10.602;2022-10-22T23:42:41;6.77;;;5.37;;
974;SDS011;6115;49.296;10.602;2022-10-22T23:47:43;6.07;;;5.50;;
974;SDS011;6115;49.296;10.602;2022-10-22T23:52:44;6.50;;;5.07;;
974;SDS011;6115;49.296;10.602;2022-10-22T23:57:44;12.13;;;5.30;;
